Nearby METAR Reports

 

KBED - Bedford, Massachusetts, USA
Distance from station: ENE 12mi, 20km
Updated: Sat, 28-Nov-2020 9:51pm EST
Clear
Clear
 Wind from WSW
Wind: WSW 7 mph , 11 km/h
Temperature: 36°F , 2°C
Wind Chill: 30°F , -1°C
Dew Point: 28°F , -2°C
Humidity: 75%
Barometer: 30.00 inHg , 1015.9 hPa
Clouds: Clear
Visibility: 10 miles , 16 km
2020/11/29 02:51 KBED 290251Z 24006KT 10SM CLR 02/M02 A3000 RMK AO2 SLP173 60000 T00171017 53012
KFIT - Fitchburg, Massachusetts, USA
Distance from station: NW 15mi, 24km
Updated: Sat, 28-Nov-2020 9:52pm EST
Clear
Clear
 Wind from calm
Wind: Calm
Temperature: 37°F , 3°C
Dew Point: 30°F , -1°C
Humidity: 75%
Barometer: 30.01 inHg , 1016.3 hPa
Clouds: Clear
Visibility: 10 miles , 16 km
2020/11/29 02:52 KFIT 290252Z AUTO 00000KT 10SM CLR 03/M01 A3001 RMK AO2 SLP166 T00281011 53012
 
KORH - Worcester, Massachusetts, USA
Distance from station: WSW 20mi, 32km
Updated: Sat, 28-Nov-2020 9:54pm EST
Clear
Clear
 Wind from W
Wind: W 5 mph , 7 km/h
Temperature: 36°F , 2°C
Wind Chill: 32°F , 0°C
Dew Point: 27°F , -3°C
Humidity: 70%
Barometer: 30.00 inHg , 1015.9 hPa
Clouds: Clear
Visibility: 10 miles , 16 km
2020/11/29 02:54 KORH 290254Z AUTO 28004KT 10SM CLR 02/M03 A3000 RMK AO2 SLP166 LAST AUGMENTED OBS T00221033 53012
KOWD - Norwood, Massachusetts, USA
Distance from station: SE 24mi, 39km
Updated: Sat, 28-Nov-2020 9:53pm EST
Clear
Clear
 Wind from calm
Wind: Calm
Temperature: 34°F , 1°C
Dew Point: 30°F , -1°C
Humidity: 87%
Barometer: 30.01 inHg , 1016.3 hPa
Clouds: Clear
Visibility: 10 miles , 16 km
2020/11/29 02:53 KOWD 290253Z AUTO 00000KT 10SM CLR 01/M01 A3001 RMK AO2 SLP162 T00111011 53010
 
KMQE - East Milton, Massachusetts, USA
Distance from station: ESE 25mi, 40km
Updated: Sat, 28-Nov-2020 9:51pm EST

 Wind from WNW
Wind: WNW 14 mph , 22 km/h
Temperature: 37°F , 3°C
Wind Chill: 28°F , -2°C
Dew Point: 30°F , -1°C
Humidity: 75%
Barometer: 29.97 inHg , 1014.9 hPa
2020/11/29 02:51 KMQE 290251Z AUTO 29012KT 03/M01 A2997 RMK AO1 SLP164 T00331011 51009
KASH - Nashua/Boire Fld, New Hampshire, USA
Distance from station: N 26mi, 42km
Updated: Sat, 28-Nov-2020 9:56pm EST
Clear
Clear
 Wind from calm
Wind: Calm
Temperature: 28°F , -2°C
Dew Point: 28°F , -2°C
Humidity: 100%
Barometer: 30.01 inHg , 1016.3 hPa
Clouds: Clear
Visibility: 10 miles , 16 km
2020/11/29 02:56 KASH 290256Z AUTO 00000KT 10SM CLR M02/M02 A3001 RMK AO2 SLP167 T10171017 51013
 
KBOS - Boston, Massachusetts, USA
Distance from station: E 26mi, 42km
Updated: Sat, 28-Nov-2020 9:54pm EST
Clear
Clear
 Wind from W
Wind: W 10 mph , 17 km/h
Temperature: 43°F , 6°C
Wind Chill: 37°F , 3°C
Dew Point: 30°F , -1°C
Humidity: 61%
Barometer: 30.01 inHg , 1016.3 hPa
Clouds: Clear
Visibility: 10 miles , 16 km
2020/11/29 02:54 KBOS 290254Z 28009KT 10SM CLR 06/M01 A3001 RMK AO2 SLP160 T00611011 53011
KLWM - Lawrence, Massachusetts, USA
Distance from station: NE 29mi, 47km
Updated: Sat, 28-Nov-2020 9:54pm EST
Clear
Clear
 Wind from SW
Wind: SW 5 mph , 7 km/h
Temperature: 36°F , 2°C
Wind Chill: 32°F , 0°C
Dew Point: 30°F , -1°C
Humidity: 81%
Barometer: 30.01 inHg , 1016.3 hPa
Clouds: Clear
Visibility: 10 miles , 16 km
2020/11/29 02:54 KLWM 290254Z 23004KT 10SM CLR 02/M01 A3001 RMK AO2 SLP164 T00221006 53012
 
KBVY - Beverly, Massachusetts, USA
Distance from station: ENE 33mi, 54km
Updated: Sat, 28-Nov-2020 9:53pm EST
Clear
Clear
 Wind from W
Wind: W 7 mph , 11 km/h
Temperature: 39°F , 4°C
Wind Chill: 34°F , 1°C
Dew Point: 30°F , -1°C
Humidity: 70%
Barometer: 29.99 inHg , 1015.6 hPa
Clouds: Clear
Visibility: 10 miles , 16 km
2020/11/29 02:53 KBVY 290253Z AUTO 28006KT 10SM CLR 04/M01 A2999 RMK AO2 SLP150 T00441006 53011
KSFZ - Pawtucket, Rhode Island, USA
Distance from station: S 34mi, 54km
Updated: Sat, 28-Nov-2020 9:56pm EST
Clear
Clear
 Wind from W
Wind: W 6 mph , 9 km/h
Temperature: 37°F , 3°C
Wind Chill: 32°F , 0°C
Dew Point: 30°F , -1°C
Humidity: 75%
Barometer: 30.02 inHg , 1016.6 hPa
Clouds: Clear
Visibility: 10 miles , 16 km
2020/11/29 02:56 KSFZ 290256Z AUTO 28005KT 10SM CLR 03/M01 A3002 RMK AO2 SLP113 T00331006 53012
 
KAFN - Jaffrey, New Hampshire, USA
Distance from station: NW 36mi, 59km
Updated: Sat, 28-Nov-2020 9:52pm EST
Clear
Clear
 Wind from calm
Wind: Calm
Temperature: 34°F , 1°C
Dew Point: 27°F , -3°C
Humidity: 75%
Barometer: 29.98 inHg , 1015.2 hPa
Clouds: Clear
Visibility: 10 miles , 16 km
2020/11/29 02:52 KAFN 290252Z AUTO 00000KT 10SM CLR 01/M03 A2998 RMK AO2 SLP166 T00061028 53009
KMHT - Manchester, New Hampshire, USA
Distance from station: N 37mi, 59km
Updated: Sat, 28-Nov-2020 9:53pm EST
Clear
Clear
 Wind from SE
Wind: SE 3 mph , 6 km/h
Temperature: 36°F , 2°C
Dew Point: 30°F , -1°C
Humidity: 81%
Barometer: 29.98 inHg , 1015.2 hPa
Clouds: Clear
Visibility: 10 miles , 16 km
2020/11/29 02:53 KMHT 290253Z 14003KT 10SM CLR 02/M01 A2998 RMK AO2 SLP168 T00221011 51011
 
KORE - Orange, Massachusetts, USA
Distance from station: WNW 40mi, 65km
Updated: Sat, 28-Nov-2020 9:52pm EST
Clear
Clear
 Wind from calm
Wind: Calm
Temperature: 34°F , 1°C
Dew Point: 28°F , -2°C
Humidity: 81%
Barometer: 30.03 inHg , 1016.9 hPa
Clouds: Clear
Visibility: 10 miles , 16 km
2020/11/29 02:52 KORE 290252Z AUTO 00000KT 10SM CLR 01/M02 A3003 RMK AO2 SLP173 T00111017 51012
KTAN - Taunton, Massachusetts, USA
Distance from station: SE 45mi, 72km
Updated: Sat, 28-Nov-2020 9:52pm EST
Clear
Clear
 Wind from WSW
Wind: WSW 3 mph , 6 km/h
Temperature: 34°F , 1°C
Dew Point: 30°F , -1°C
Humidity: 87%
Barometer: 30.01 inHg , 1016.3 hPa
Clouds: Clear
Visibility: 10 miles , 16 km
2020/11/29 02:52 KTAN 290252Z AUTO 24003KT 10SM CLR 01/M01 A3001 RMK AO2 SLP161 T00111011 51012 $
 
KPVD - Providence/Green, Rhode Island, USA
Distance from station: S 48mi, 77km
Updated: Sat, 28-Nov-2020 9:51pm EST
Few Clouds
Few Clouds
 Wind from W
Wind: W 7 mph , 11 km/h
Temperature: 39°F , 4°C
Wind Chill: 34°F , 1°C
Dew Point: 30°F , -1°C
Humidity: 70%
Barometer: 30.03 inHg , 1016.9 hPa
Clouds: Few Clouds
Visibility: 10 miles , 16 km
Cloud details: Few Clouds 8000 ft
2020/11/29 02:51 KPVD 290251Z 26006KT 10SM FEW080 04/M01 A3003 RMK AO2 SLP168 T00441006 51013 $
KGHG - Marshfield, Massachusetts, USA
Distance from station: ESE 49mi, 79km
Updated: Sat, 28-Nov-2020 10:35pm EST
Clear
Clear
 Wind from W
Wind: W 3 mph , 6 km/h
Temperature: 39°F , 4°C
Dew Point: 32°F , 0°C
Humidity: 75%
Barometer: 30.01 inHg , 1016.3 hPa
Clouds: Clear
Visibility: 10 miles , 16 km
2020/11/29 03:35 KGHG 290335Z AUTO 27003KT 10SM CLR 04/00 A3001 RMK AO2
 
KEEN - Keene/Dillant, New Hampshire, USA
Distance from station: NW 50mi, 81km
Updated: Sat, 28-Nov-2020 9:56pm EST
Clear
Clear
 Wind from calm
Wind: Calm
Temperature: 28°F , -2°C
Dew Point: 28°F , -2°C
Humidity: 100%
Barometer: 30.01 inHg , 1016.3 hPa
Clouds: Clear
Visibility: 10 miles , 16 km
2020/11/29 02:56 KEEN 290256Z AUTO 00000KT 10SM CLR M02/M02 A3001 RMK AO2 SLP171 T10221022 51010 FZRANO $